• Join FlightAware (Why Join?)
  • Login
  • US Flag 
03:22AM EDT


 

Airport Tracker/Info


-or-


 

Live Flight TrackerFlight Track Log ✈ AAL832 ✈ 06-May-2013 ✈ KORD - KMIA

Flight Track Log - Related Links

Times and Time Zones

All times are in EDT time to prevent confusion due to time zone crossing. See the AAL832 flight status page for this flight to view local times or setup timezone preferences in your user account.

Time Position Orientation Groundspeed Altitude Reporting Facility
EDT Latitude Longitude Course Direction KTS MPH feet Rate Location/Type
06:09PM 41.9667 -87.8500 180° South 177 204 3,200  Level Chicago TRACON
06:10PM 41.9000 -87.8333 169° South 248 285 5,500 3,060 Climbing Chicago TRACON
06:11PM 41.6579 -87.7177 166° South  Level Estimated
06:12PM 41.5499 -87.6551 166° South  Level Estimated
06:12PM 41.7364 -87.8228 177° South 285 328 13,200  Level Chicago Center
06:13PM 41.4419 -87.5927 180° South  Level Estimated
06:14PM 41.5874 -87.7680 166° South  Level FlightAware Approximate
06:14PM 41.3339 -87.5305 180° South  Level Estimated
06:15PM 41.4608 -87.7375 174° South 367 422 20,300  Level Chicago Center
06:16PM 41.3450 -87.7236 175° South 415 478 22,800 2,340 Climbing Chicago Center
06:18PM 41.2070 -87.7167 180° South  Level FlightAware Approximate
06:18PM 41.1103 -87.7158 180° South 434 499 27,200  Level Indianapolis Center
06:20PM 40.9838 -87.6884 176° South  Level FlightAware Approximate
06:20PM 40.8269 -87.6736 176° South 461 531 31,100  Level Chicago Center
06:21PM 40.7784 -87.6588 174° South  Level FlightAware Approximate
06:22PM 40.6983 -87.6578 175° South 466 536 33,400  Level Chicago Center
06:23PM 40.5725 -87.6408 174° South 457 526 35,500 1,740 Climbing Chicago Center
06:24PM 40.3467 -87.5611 165° South 438 504 38,500 1,200 Climbing Indianapolis Center
06:25PM 40.2372 -87.4944 155° Southeast 437 503 39,000 120 Climbing Indianapolis Center
06:28PM 39.9958 -87.3478 155° Southeast 437 503 39,000  Level Indianapolis Center
06:29PM 39.8850 -87.2825 156° South 440 506 39,000  Level Indianapolis Center
06:30PM 39.7767 -87.2167 155° Southeast 436 502 39,000  Level Indianapolis Center
06:31PM 39.6675 -87.1511 155° Southeast 433 498 39,000  Level Indianapolis Center
06:32PM 39.5361 -87.0722 155° Southeast 437 503 39,000  Level Indianapolis Center
06:34PM 39.3161 -86.9414 155° Southeast 438 504 39,000  Level Indianapolis Center
06:36PM 39.1247 -86.8233 154° Southeast  Level FlightAware Approximate
06:37PM 38.9694 -86.7192 152° Southeast 448 516 39,000  Level Indianapolis Center
06:38PM 38.8575 -86.6433 152° Southeast 451 519 39,000  Level Indianapolis Center
06:39PM 38.7458 -86.5681 152° Southeast 450 518 39,000  Level Indianapolis Center
06:40PM 38.6331 -86.4919 152° Southeast 453 521 39,000  Level Indianapolis Center
06:41PM 38.5203 -86.4161 152° Southeast 453 521 39,000  Level Indianapolis Center
06:42PM 38.4061 -86.3408 153° Southeast 455 524 39,000  Level Indianapolis Center
06:43PM 38.3940 -86.3348 152° Southeast  Level FlightAware Approximate
06:43PM 38.2703 -86.2500 152° Southeast 456 525 39,000  Level Indianapolis Center
06:44PM 38.1558 -86.1750 153° Southeast 459 528 39,000  Level Indianapolis Center
06:45PM 38.0428 -86.0997 152° Southeast 457 526 39,000  Level Indianapolis Center
06:46PM 37.9275 -86.0256 153° Southeast 460 529 39,000  Level Indianapolis Center
06:47PM 37.8153 -85.9519 153° Southeast 453 521 39,000  Level Indianapolis Center
06:48PM 37.7000 -85.8775 153° Southeast 458 527 39,000  Level Indianapolis Center
06:49PM 37.5883 -85.8047 153° Southeast 453 521 39,000  Level Indianapolis Center
06:50PM 37.4764 -85.7311 152° Southeast 451 519 39,000  Level Indianapolis Center
06:52PM 37.3452 -85.6469 153° Southeast  Level FlightAware Approximate
06:52PM 37.2328 -85.5753 153° Southeast 439 505 39,000  Level Indianapolis Center
06:53PM 37.1144 -85.4986 153° Southeast 440 506 39,000  Level Indianapolis Center
06:54PM 37.0161 -85.4361 153° Southeast 445 512 39,000  Level Indianapolis Center
06:55PM 36.8942 -85.3978 166° South 459 528 39,000  Level Indianapolis Center
06:56PM 36.7469 -85.3503 166° South 456 525 39,000  Level Indianapolis Center
06:58PM 36.6257 -85.3196 169° South  Level FlightAware Approximate
06:59PM 36.5011 -85.2672 169° South 458 527 39,000  Level Indianapolis Center
07:00PM 36.3767 -85.2317 167° South 458 527 39,000  Level Indianapolis Center
07:00PM 36.3258 -85.2189 169° South 465 535 39,000  Level Atlanta Center
07:01PM 36.1989 -85.1811 166° South 470 541 39,000  Level Atlanta Center
07:02PM 36.0764 -85.1433 166° South 470 541 39,000  Level Atlanta Center
07:05PM 35.7278 -85.0372 166° South 468 539 39,000  Level Indianapolis Center
07:06PM 35.5811 -84.9964 167° South 470 541 39,000  Level Atlanta Center
07:07PM 35.4542 -84.9592 167° South 470 541 39,000  Level Atlanta Center
07:08PM 35.3292 -84.9247 167° South 470 541 39,000  Level Atlanta Center
07:09PM 35.2022 -84.8878 167° South 470 541 39,000  Level Atlanta Center
07:11PM 35.0137 -84.8325 167° South  Level FlightAware Approximate
07:12PM 34.8333 -84.7803 167° South 465 535 39,000  Level Atlanta Center
07:13PM 34.7083 -84.7436 166° South 465 535 39,000  Level Atlanta Center
07:14PM 34.5731 -84.7022 166° South 460 529 39,000  Level Atlanta Center
07:15PM 34.4481 -84.6661 167° South 467 537 39,000  Level Atlanta Center
07:16PM 34.3208 -84.6300 167° South 467 537 39,000  Level Atlanta Center
07:17PM 34.1958 -84.5964 167° South 467 537 39,000  Level Atlanta Center
07:19PM 34.0063 -84.5470 166° South  Level FlightAware Approximate
07:20PM 33.8100 -84.5414 166° South 462 532 39,000  Level Atlanta Center
07:21PM 33.6828 -84.5306 176° South 462 532 39,000  Level Atlanta Center
07:23PM 33.4877 -84.5195 177° South  Level FlightAware Approximate
07:25PM 33.1733 -84.5031 177° South 462 532 39,000  Level Atlanta Center
07:26PM 33.0586 -84.4947 177° South 457 526 39,000  Level Atlanta Center
07:28PM 32.8635 -84.4839 177° South  Level FlightAware Approximate
07:29PM 32.6831 -84.4781 177° South 457 526 39,000  Level Atlanta Center
07:30PM 32.6517 -84.4726 177° South  Level FlightAware Approximate
07:30PM 32.5558 -84.4700 177° South 457 526 39,000  Level Atlanta Center
07:31PM 32.4283 -84.4669 179° South 457 526 39,000  Level Atlanta Center
07:32PM 32.3031 -84.4592 177° South 457 526 39,000  Level Atlanta Center
07:35PM 32.0275 -84.4380 177° South  Level FlightAware Approximate
07:36PM 31.7981 -84.4350 178° South 455 524 39,000  Level Jacksonville Center
07:38PM 31.5436 -84.4064 175° South 465 535 39,000  Level Jacksonville Center
07:40PM 31.3008 -84.2858 157° South 470 541 39,000  Level Jacksonville Center
07:41PM 31.1908 -84.2308 157° South 479 551 39,000  Level Jacksonville Center
07:42PM 31.0722 -84.1733 157° South 473 544 39,000  Level Jacksonville Center
07:44PM 30.8898 -84.0455 159° South  Level FlightAware Approximate
07:45PM 30.7169 -84.0017 159° South 468 539 39,000  Level Jacksonville Center
07:46PM 30.5961 -83.9447 158° South 468 539 39,000  Level Jacksonville Center
07:47PM 30.4819 -83.8906 158° South 463 533 39,000  Level Jacksonville Center
07:48PM 30.3611 -83.8339 158° South 463 533 39,000  Level Jacksonville Center
07:49PM 30.2425 -83.7797 158° South 463 533 39,000  Level Jacksonville Center
07:50PM 30.1219 -83.7258 159° South 468 539 39,000  Level Jacksonville Center
07:51PM 30.0031 -83.6697 158° South 468 539 39,000  Level Jacksonville Center
07:53PM 29.7636 -83.5600 158° South 468 539 39,000  Level Jacksonville Center
07:54PM 29.6450 -83.5067 159° South 468 539 39,000  Level Jacksonville Center
07:55PM 29.5242 -83.4511 158° South 468 539 39,000  Level Jacksonville Center
07:56PM 29.4033 -83.3956 158° South 468 539 39,000  Level Jacksonville Center
07:57PM 29.2825 -83.3403 158° South 468 539 39,000  Level Jacksonville Center
07:58PM 29.1636 -83.2872 159° South 463 533 39,000  Level Jacksonville Center
08:00PM 28.9239 -83.1750 158° South 468 539 39,000  Level Jacksonville Center
08:01PM 28.8031 -83.1225 159° South 468 539 39,000  Level Jacksonville Center
08:02PM 28.6842 -83.0700 159° South 468 539 39,000  Level Jacksonville Center
08:03PM 28.5033 -82.9925 159° South 466 536 39,000  Level Miami Center
08:05PM 28.3692 -82.9260 156° South  Level FlightAware Approximate
08:05PM 28.2619 -82.8828 156° South 460 529 39,000  Level Miami Center
08:06PM 28.1450 -82.8317 159° South 460 529 39,000  Level Miami Center
08:08PM 28.0114 -82.7642 156° South  Level FlightAware Approximate
08:08PM 27.9056 -82.7253 156° South 465 535 39,000  Level Miami Center
08:09PM 27.7781 -82.6764 161° South 453 521 39,000  Level Miami Center
08:10PM 27.6636 -82.6214 157° South 453 521 39,000 -420 Level Miami Center
08:11PM 27.5711 -82.5325 140° Southeast 485 558 38,200 -1,140 Descending Miami Center
08:13PM 27.4927 -82.3848 141° Southeast  Level FlightAware Approximate
08:13PM 27.3556 -82.3303 141° Southeast 484 557 35,700  Level Miami Center
08:14PM 27.2550 -82.2319 139° Southeast 484 557 34,600 -1,140 Descending Miami Center
08:15PM 27.1581 -82.1411 140° Southeast 484 557 33,500 -1,200 Descending Miami Center
08:17PM 27.0676 -82.0046 141° Southeast  Level FlightAware Approximate
08:19PM 26.7214 -81.7356 141° Southeast 500 575 28,700  Level Miami Center
08:20PM 26.6286 -81.6436 138° Southeast 505 581 27,200 -1,560 Descending Miami Center
08:21PM 26.5250 -81.5489 141° Southeast 492 566 25,600 -1,680 Descending Miami Center
08:22PM 26.4278 -81.4592 140° Southeast 482 555 23,900 -1,740 Descending Miami Center
08:23PM 26.3303 -81.3697 141° Southeast 472 543 22,200 -1,740 Descending Miami Center
08:24PM 26.4176 -81.4275 141° Southeast  Level FlightAware Approximate
08:24PM 26.2350 -81.2803 140° Southeast 455 524 20,500  Level Miami Center
08:25PM 26.3215 -81.3562 141° Southeast  Level FlightAware Approximate
08:25PM 26.1372 -81.1911 141° Southeast 455 524 18,600  Level Miami Center
08:26PM 26.0417 -81.1092 142° Southeast 432 497 16,700 -1,860 Descending Miami Center
08:27PM 25.9928 -81.0633 140° Southeast 425 489 16,000 -780 Descending Miami Center
08:27PM 25.9564 -81.0253 137° Southeast 437 503 15,900  Descending Miami Center
08:28PM 25.9094 -80.9867 144° Southeast 379 436 16,000  Climbing Miami Center
08:28PM 25.8814 -80.9442 126° Southeast 403 464 15,900 -720 Descending Miami Center
08:30PM 25.8366 -80.7943 85° East  Level FlightAware Approximate
08:31PM 25.8578 -80.6500 85° East 389 448 13,900  Level Miami Center
08:31PM 25.8533 -80.5878 95° East 375 432 13,000 -1,680 Descending Miami Center
08:32PM 25.8250 -80.5453 127° Southeast 356 410 12,200 -1,500 Descending Miami Center
08:32PM 25.8053 -80.4939 113° Southeast 352 405 11,500 -1,380 Descending Miami Center
08:33PM 25.7711 -80.4422 126° Southeast 325 374 10,700 -900 Descending Miami Center
08:33PM 25.7594 -80.4094 112° Southeast 333 383 10,600 -1,140 Descending Miami Center
08:34PM 25.7214 -80.3392 121° Southeast 299 344 9,000 -1,080 Descending Miami Center
08:35PM 25.6953 -80.2992 126° Southeast 265 305 9,000 -420 Level Miami Center
08:35PM 25.6833 -80.2689 114° Southeast 279 321 8,600 -1,380 Descending Miami Center
08:36PM 25.6614 -80.2222 118° Southeast 261 300 7,600 -1,140 Descending Miami Center
08:37PM 25.6253 -80.1567 121° Southeast 249 287 6,900 -1,080 Descending Miami Center
08:38PM 25.5892 -80.0936 122° Southeast 245 282 5,600 -1,380 Descending Miami Center
08:40PM 25.6506 -80.0536 30° Northeast 215 247 3,000 -900 Descending Miami Center
08:41PM 25.6894 -80.0986 314° West 190 219 3,000  Level Miami Center